Charles N Curtis — WD8128 — position and weather

sailwx.info

Track history (hours):
 
Tides and Currents Weather Stations Pressure Air Temp Water Temp Dewpoint Dewpoint Depression Visibility Wind Speed Wind Dir Waves Ship Positions

Charles N Curtis

Owner: CHARLES N CURTIS, TACOMA, WA. More information available from US FCC via Universal Licensing System and Coast Guard Vessel Documentation Center.

Last reported at 2017-Dec-12 04:34 UTC. Time now 2017-Dec-16 09:04 UTC.
Position N 47°15' W 122°26'.

Length 23 m; draft 1.4 m.

Type: Passenger vessel. MMSI: 366902590.

Date/timePositionNaut miles runAvg speedWind from/ knotsBaromVisibWave heightAir tempDewpointWater temp
2017-Dec-12 04:34N 47°15' W 122°26'0 2.8
2017-Dec-12 04:29N 47°15' W 122°26'1 2.8
2017-Dec-12 04:00N 47°17' W 122°27'0 0.9
2017-Dec-12 03:30N 47°16' W 122°27'  
2017-Dec-09 23:27N 47°15' W 122°26'3 5.7
2017-Dec-09 23:01N 47°18' W 122°28'1 1.8
2017-Dec-09 22:31N 47°17' W 122°29'  
2017-Dec-02 23:33N 47°15' W 122°26'0 1.5
2017-Dec-02 23:30N 47°15' W 122°26'0 0.3
2017-Dec-02 23:00N 47°15' W 122°26'0 0.0
2017-Dec-02 22:30N 47°15' W 122°26'0 0.0
2017-Dec-02 22:00N 47°15' W 122°26'3 5.4
2017-Dec-02 21:30N 47°17' W 122°29'3 6.1
2017-Dec-02 21:00N 47°15' W 122°26'0 0.7
2017-Dec-02 20:30N 47°16' W 122°26'0 0.0
2017-Dec-02 19:56N 47°16' W 122°26'0 0.0
2017-Dec-02 18:47N 47°16' W 122°26'0 0.0
2017-Dec-02 18:30N 47°16' W 122°26'0 0.5
2017-Dec-02 18:00N 47°15' W 122°26'  
Track history (hours):
 
Tides and Currents Weather Stations Pressure Air Temp Water Temp Dewpoint Dewpoint Depression Visibility Wind Speed Wind Dir Waves Ship Positions

Charles N Curtis

Owner: CHARLES N CURTIS, TACOMA, WA. More information available from US FCC via Universal Licensing System and Coast Guard Vessel Documentation Center.

Last reported at 2017-Dec-12 04:34 UTC. Time now 2017-Dec-16 09:04 UTC.
Position N 47°15' W 122°26'.

Length 23 m; draft 1.4 m.

Type: Passenger vessel. MMSI: 366902590.

Date/timePositionNaut miles runAvg speedWind from/ knotsBaromVisibWave heightAir tempDewpointWater temp
2017-Dec-12 04:34N 47°15' W 122°26'0 2.8
2017-Dec-12 04:29N 47°15' W 122°26'1 2.8
2017-Dec-12 04:00N 47°17' W 122°27'0 0.9
2017-Dec-12 03:30N 47°16' W 122°27'  
2017-Dec-09 23:27N 47°15' W 122°26'3 5.7
2017-Dec-09 23:01N 47°18' W 122°28'1 1.8
2017-Dec-09 22:31N 47°17' W 122°29'  
2017-Dec-02 23:33N 47°15' W 122°26'0 1.5
2017-Dec-02 23:30N 47°15' W 122°26'0 0.3
2017-Dec-02 23:00N 47°15' W 122°26'0 0.0
2017-Dec-02 22:30N 47°15' W 122°26'0 0.0
2017-Dec-02 22:00N 47°15' W 122°26'3 5.4
2017-Dec-02 21:30N 47°17' W 122°29'3 6.1
2017-Dec-02 21:00N 47°15' W 122°26'0 0.7
2017-Dec-02 20:30N 47°16' W 122°26'0 0.0
2017-Dec-02 19:56N 47°16' W 122°26'0 0.0
2017-Dec-02 18:47N 47°16' W 122°26'0 0.0
2017-Dec-02 18:30N 47°16' W 122°26'0 0.5
2017-Dec-02 18:00N 47°15' W 122°26'  

Dump ship's entire track history